createdAt,value
2022-08-26T00:02:04.948Z,58.79
2022-08-26T00:04:52.265Z,58.77
2022-08-26T00:07:39.927Z,58.90
2022-08-26T00:10:30.902Z,58.96
2022-08-26T00:13:19.531Z,59.34
2022-08-26T00:16:08.035Z,59.74
2022-08-26T00:18:59.213Z,59.89
2022-08-26T00:21:48.706Z,60.65
2022-08-26T00:24:36.889Z,61.29
2022-08-26T00:27:25.112Z,61.48
2022-08-26T00:30:22.747Z,63.01
2022-08-26T00:33:11.835Z,63.58
2022-08-26T00:35:59.197Z,64.22
2022-08-26T00:38:46.552Z,64.53
2022-08-26T00:41:35.209Z,65.49
2022-08-26T00:44:23.074Z,68.04
2022-08-26T00:47:22.564Z,68.86
2022-08-26T00:50:13.786Z,70.63
2022-08-26T00:53:21.350Z,72.05
2022-08-26T00:56:29.563Z,73.10
2022-08-26T00:59:17.832Z,74.71
2022-08-26T01:02:05.331Z,74.94
2022-08-26T01:04:56.419Z,75.56
2022-08-26T01:07:44.509Z,76.55
2022-08-26T01:10:31.854Z,77.61
2022-08-26T01:13:20.162Z,78.39
2022-08-26T01:16:12.690Z,79.27
2022-08-26T01:19:15.690Z,79.64
2022-08-26T01:22:10.212Z,80.67
2022-08-26T01:25:03.565Z,81.87
2022-08-26T01:27:52.069Z,82.83
2022-08-26T01:30:40.740Z,83.14
2022-08-26T01:33:52.380Z,84.18
2022-08-26T01:36:40.588Z,84.27
2022-08-26T01:39:32.173Z,84.73
2022-08-26T01:42:22.318Z,85.72
2022-08-26T01:45:15.306Z,85.87
2022-08-26T01:48:08.907Z,86.13
2022-08-26T01:50:58.456Z,87.07
2022-08-26T01:53:46.508Z,87.34
2022-08-26T01:56:36.475Z,87.93
2022-08-26T01:59:25.016Z,87.98
2022-08-26T02:02:12.976Z,88.20
2022-08-26T02:05:05.818Z,89.25
2022-08-26T02:07:53.364Z,88.77
2022-08-26T02:10:41.147Z,89.27
2022-08-26T02:13:31.443Z,89.46
2022-08-26T02:16:21.992Z,89.43
2022-08-26T02:19:16.901Z,90.43
2022-08-26T02:22:08.293Z,90.55
2022-08-26T02:24:58.929Z,90.29
2022-08-26T02:27:47.585Z,91.25
2022-08-26T02:30:34.992Z,91.81
2022-08-26T02:33:23.072Z,91.75
2022-08-26T02:36:10.493Z,91.97
2022-08-26T02:38:59.470Z,92.60
2022-08-26T02:41:46.856Z,92.94
2022-08-26T02:44:35.699Z,93.37
2022-08-26T02:47:24.867Z,93.60
2022-08-26T02:50:12.305Z,93.75
2022-08-26T02:52:59.597Z,94.26
2022-08-26T02:55:49.411Z,94.14
2022-08-26T02:58:37.248Z,95.17
2022-08-26T03:01:35.373Z,95.49
2022-08-26T03:04:22.744Z,94.67
2022-08-26T03:07:13.260Z,95.39
2022-08-26T03:10:00.765Z,95.09
2022-08-26T03:12:48.266Z,95.60
2022-08-26T03:15:35.545Z,96.09
2022-08-26T03:18:24.596Z,95.64
2022-08-26T03:21:17.793Z,95.53
2022-08-26T03:24:05.889Z,95.55
2022-08-26T03:26:53.313Z,96.16
2022-08-26T03:29:59.612Z,95.22
2022-08-26T03:32:46.853Z,95.59
2022-08-26T03:35:34.961Z,95.78
2022-08-26T03:38:26.692Z,95.10
2022-08-26T03:41:14.092Z,95.99
2022-08-26T03:44:02.410Z,95.79
2022-08-26T03:46:50.850Z,95.96
2022-08-26T03:49:38.371Z,95.59
2022-08-26T03:52:26.594Z,95.51
2022-08-26T03:55:16.441Z,95.44
2022-08-26T03:58:05.006Z,95.33
2022-08-26T04:00:55.557Z,95.45
2022-08-26T04:04:00.020Z,94.80
2022-08-26T04:06:48.049Z,95.97
2022-08-26T04:09:35.479Z,95.21
2022-08-26T04:12:23.632Z,95.98
2022-08-26T04:15:15.110Z,95.99
2022-08-26T04:18:02.371Z,95.56
2022-08-26T04:20:50.526Z,95.24
2022-08-26T04:23:47.560Z,95.30
2022-08-26T04:26:39.554Z,95.51
2022-08-26T04:29:30.189Z,96.07
2022-08-26T04:32:17.499Z,95.60
2022-08-26T04:35:05.551Z,95.19
2022-08-26T04:37:53.529Z,94.97
2022-08-26T04:40:46.695Z,95.83
2022-08-26T04:43:34.286Z,95.08
2022-08-26T04:46:24.350Z,94.79
2022-08-26T04:49:12.718Z,95.16
2022-08-26T04:52:00.026Z,94.52
2022-08-26T04:54:47.308Z,94.78
2022-08-26T04:57:35.318Z,95.35
2022-08-26T05:00:23.096Z,95.24
2022-08-26T05:03:10.765Z,95.51
2022-08-26T05:05:58.582Z,94.84
2022-08-26T05:08:46.667Z,94.96
2022-08-26T05:11:34.055Z,95.26
2022-08-26T05:14:23.245Z,94.81
2022-08-26T05:17:10.660Z,94.20
2022-08-26T05:20:02.517Z,93.59
2022-08-26T05:22:51.287Z,93.20
2022-08-26T05:25:41.835Z,94.12
2022-08-26T05:28:29.928Z,93.42
2022-08-26T05:31:19.910Z,93.35
2022-08-26T05:34:07.445Z,93.33
2022-08-26T05:36:55.918Z,92.91
2022-08-26T05:39:43.561Z,92.43
2022-08-26T05:42:38.562Z,91.75
2022-08-26T05:45:26.480Z,91.97
2022-08-26T05:48:16.872Z,91.63
2022-08-26T05:51:08.480Z,90.32
2022-08-26T05:53:56.249Z,89.33
2022-08-26T05:56:43.497Z,90.06
2022-08-26T05:59:33.859Z,89.18
2022-08-26T06:02:24.781Z,90.05
2022-08-26T06:05:13.104Z,89.88
2022-08-26T06:08:14.108Z,89.93
2022-08-26T06:11:05.553Z,88.73
2022-08-26T06:14:03.057Z,89.50
2022-08-26T06:16:51.376Z,89.49
2022-08-26T06:19:38.666Z,88.88
2022-08-26T06:22:47.262Z,89.53
2022-08-26T06:25:38.513Z,88.18
2022-08-26T06:28:26.573Z,88.35
2022-08-26T06:31:15.303Z,87.36
2022-08-26T06:34:08.593Z,87.78
2022-08-26T06:37:06.379Z,87.22
2022-08-26T06:39:53.917Z,87.54
2022-08-26T06:42:41.257Z,87.79
2022-08-26T06:45:28.558Z,86.96
2022-08-26T06:48:18.957Z,86.45
2022-08-26T06:51:15.228Z,85.94
2022-08-26T06:54:04.536Z,84.96
2022-08-26T06:56:52.249Z,84.91
2022-08-26T06:59:39.515Z,84.99
2022-08-26T07:02:28.597Z,85.23
2022-08-26T07:05:16.176Z,84.74
2022-08-26T07:08:03.740Z,84.79
2022-08-26T07:10:51.142Z,84.66
2022-08-26T07:13:43.103Z,84.87
2022-08-26T07:16:30.685Z,84.96
2022-08-26T07:19:30.430Z,85.47
2022-08-26T07:22:18.709Z,83.69
2022-08-26T07:25:08.639Z,83.21
2022-08-26T07:27:55.904Z,82.95
2022-08-26T07:30:43.406Z,82.75
2022-08-26T07:33:30.736Z,82.09
2022-08-26T07:36:19.132Z,82.59
2022-08-26T07:39:06.796Z,81.31
2022-08-26T07:41:54.277Z,81.82
2022-08-26T07:44:43.559Z,82.54
2022-08-26T07:47:31.004Z,82.93
2022-08-26T07:50:18.339Z,82.46
2022-08-26T07:53:05.711Z,83.09
2022-08-26T07:55:56.154Z,82.44
2022-08-26T07:58:45.743Z,81.56
2022-08-26T08:01:35.527Z,84.05
2022-08-26T08:04:27.069Z,82.90
2022-08-26T08:07:14.610Z,82.70
2022-08-26T08:10:04.562Z,82.90
2022-08-26T08:12:57.515Z,82.84
2022-08-26T08:15:46.141Z,82.56
2022-08-26T08:18:33.550Z,82.29
2022-08-26T08:21:21.760Z,82.35
2022-08-26T08:24:11.560Z,82.83
2022-08-26T08:27:00.432Z,83.08
2022-08-26T08:29:47.862Z,83.07
2022-08-26T08:32:39.883Z,82.79
2022-08-26T08:35:27.405Z,83.65
2022-08-26T08:38:15.473Z,84.06
2022-08-26T08:41:05.602Z,84.12
2022-08-26T08:43:53.348Z,83.65
2022-08-26T08:46:42.819Z,83.26
2022-08-26T08:49:32.160Z,83.55
2022-08-26T08:52:35.060Z,83.98
2022-08-26T08:55:30.731Z,84.21
2022-08-26T08:58:21.777Z,83.52
2022-08-26T09:01:17.437Z,82.45
2022-08-26T09:04:17.280Z,83.34
2022-08-26T09:07:08.770Z,82.73
2022-08-26T09:10:00.888Z,82.84
2022-08-26T09:12:49.300Z,82.72
2022-08-26T09:16:01.608Z,82.53
2022-08-26T09:18:48.877Z,82.74
2022-08-26T09:21:37.388Z,82.92
2022-08-26T09:24:28.402Z,82.39
2022-08-26T09:27:41.917Z,82.38
2022-08-26T09:30:33.153Z,82.47
2022-08-26T09:33:28.393Z,82.23
2022-08-26T09:36:15.673Z,82.57
2022-08-26T09:39:04.418Z,81.60
2022-08-26T09:42:11.795Z,80.44
2022-08-26T09:45:03.485Z,80.36
2022-08-26T09:47:51.203Z,80.18
2022-08-26T09:50:51.278Z,79.70
2022-08-26T09:53:52.387Z,79.97
2022-08-26T09:56:40.147Z,79.08
2022-08-26T09:59:30.753Z,78.77
2022-08-26T10:02:29.702Z,79.26
2022-08-26T10:05:29.658Z,79.01
2022-08-26T10:08:38.471Z,78.40
2022-08-26T10:11:42.447Z,78.36
2022-08-26T10:17:41.309Z,79.07
2022-08-26T10:20:37.941Z,78.16
2022-08-26T10:23:32.654Z,79.45
2022-08-26T10:26:41.274Z,80.00
2022-08-26T10:29:39.166Z,79.47
2022-08-26T10:32:35.185Z,79.57
2022-08-26T10:35:26.905Z,79.53
2022-08-26T10:38:18.390Z,79.61
2022-08-26T10:41:15.853Z,78.95
2022-08-26T10:44:08.365Z,78.79
2022-08-26T10:47:09.022Z,78.45
2022-08-26T10:50:00.553Z,78.82
2022-08-26T10:53:13.853Z,78.56
2022-08-26T10:56:01.975Z,77.93
2022-08-26T10:59:26.372Z,78.52
2022-08-26T11:02:39.668Z,78.01
2022-08-26T11:05:26.925Z,76.79
2022-08-26T11:08:20.846Z,76.21
2022-08-26T11:11:08.294Z,75.23
2022-08-26T11:14:05.494Z,73.67
2022-08-26T11:16:56.833Z,73.38
2022-08-26T11:20:09.163Z,72.96
2022-08-26T11:23:13.006Z,72.33
2022-08-26T11:26:35.383Z,71.89
2022-08-26T11:30:15.685Z,71.21
2022-08-26T11:33:07.083Z,70.57
2022-08-26T11:35:54.941Z,70.71
2022-08-26T11:38:42.641Z,70.32
2022-08-26T11:41:31.245Z,70.06
2022-08-26T11:44:26.173Z,69.87
2022-08-26T11:47:16.337Z,69.53
2022-08-26T11:50:12.509Z,68.85
2022-08-26T11:53:06.280Z,68.89
2022-08-26T11:55:56.908Z,68.48
2022-08-26T11:58:47.666Z,67.87
2022-08-26T12:01:36.247Z,66.88
2022-08-26T12:04:30.295Z,66.87
2022-08-26T12:07:24.410Z,67.33
2022-08-26T12:10:26.677Z,67.97
2022-08-26T12:13:23.476Z,68.57
2022-08-26T12:16:12.454Z,70.02
2022-08-26T12:19:00.085Z,70.11
2022-08-26T12:21:48.864Z,69.91
2022-08-26T12:24:42.252Z,70.50
2022-08-26T12:27:37.174Z,71.33
2022-08-26T12:30:26.296Z,71.99
2022-08-26T12:33:23.082Z,71.73
2022-08-26T12:36:12.086Z,71.47
2022-08-26T12:39:30.856Z,70.64
2022-08-26T12:42:38.489Z,70.03
2022-08-26T12:45:31.364Z,70.68
2022-08-26T12:48:29.857Z,69.88
2022-08-26T12:51:25.121Z,69.22
2022-08-26T12:54:15.893Z,69.29
2022-08-26T12:57:11.830Z,69.75
2022-08-26T13:00:26.271Z,69.43
2022-08-26T13:03:33.753Z,70.09
2022-08-26T13:06:22.072Z,70.48
2022-08-26T13:09:09.262Z,70.81
2022-08-26T13:11:58.493Z,71.18
2022-08-26T13:14:46.113Z,71.78
2022-08-26T13:17:35.768Z,71.41
2022-08-26T13:20:23.217Z,71.33
2022-08-26T13:23:10.778Z,70.77
2022-08-26T13:25:59.825Z,70.82
2022-08-26T13:28:48.628Z,71.11
2022-08-26T13:31:49.394Z,71.19
2022-08-26T13:34:37.621Z,70.98
2022-08-26T13:37:34.308Z,70.69
2022-08-26T13:40:22.165Z,69.71
2022-08-26T13:43:10.926Z,69.57
2022-08-26T13:45:58.275Z,69.24
2022-08-26T13:48:45.581Z,69.32
2022-08-26T13:51:33.563Z,69.06
2022-08-26T13:54:21.125Z,69.08
2022-08-26T13:57:09.065Z,69.75
2022-08-26T13:59:58.812Z,69.32
2022-08-26T14:02:46.829Z,68.78
2022-08-26T14:05:34.177Z,69.09
2022-08-26T14:08:22.232Z,70.11
2022-08-26T14:11:09.885Z,70.12
2022-08-26T14:13:57.160Z,70.10
2022-08-26T14:16:58.966Z,70.29
2022-08-26T14:19:49.683Z,70.94
2022-08-26T14:22:43.709Z,70.67
2022-08-26T14:25:45.593Z,71.35
2022-08-26T14:28:32.861Z,70.52
2022-08-26T14:31:20.702Z,71.02
2022-08-26T14:34:08.105Z,71.26
2022-08-26T14:36:55.357Z,70.86
2022-08-26T14:39:42.725Z,71.12
2022-08-26T14:42:31.592Z,70.08
2022-08-26T14:45:23.166Z,70.55
2022-08-26T14:48:10.813Z,71.07
2022-08-26T14:50:58.091Z,70.99
2022-08-26T14:54:03.814Z,70.74
2022-08-26T14:56:54.556Z,70.59
2022-08-26T14:59:49.749Z,70.63
2022-08-26T15:02:38.756Z,71.10
2022-08-26T15:05:26.125Z,70.59
2022-08-26T15:08:13.367Z,70.14
2022-08-26T15:11:00.703Z,70.06
2022-08-26T15:13:48.172Z,70.06
2022-08-26T15:16:38.041Z,70.14
2022-08-26T15:19:26.737Z,71.30
2022-08-26T15:22:14.018Z,70.46
2022-08-26T15:25:01.851Z,70.93
2022-08-26T15:27:49.122Z,71.11
2022-08-26T15:30:36.441Z,70.92
2022-08-26T15:33:23.710Z,70.33
2022-08-26T15:36:11.526Z,71.21
2022-08-26T15:39:00.569Z,70.90
2022-08-26T15:41:47.942Z,71.30
2022-08-26T15:44:36.539Z,71.49
2022-08-26T15:47:24.285Z,71.53
2022-08-26T15:50:11.701Z,71.64
2022-08-26T15:53:01.264Z,71.15
2022-08-26T15:55:49.009Z,72.03
2022-08-26T15:58:37.038Z,71.94
2022-08-26T16:01:27.724Z,71.85
2022-08-26T16:04:15.390Z,72.32
2022-08-26T16:07:03.321Z,71.40
2022-08-26T16:09:54.248Z,72.26
2022-08-26T16:12:42.493Z,71.79
2022-08-26T16:15:32.259Z,73.02
2022-08-26T16:18:20.333Z,72.78
2022-08-26T16:21:20.324Z,73.00
2022-08-26T16:24:07.847Z,72.33
2022-08-26T16:26:55.118Z,72.72
2022-08-26T16:29:42.417Z,72.64
2022-08-26T16:32:31.353Z,73.14
2022-08-26T16:35:18.752Z,73.41
2022-08-26T16:38:06.556Z,74.12
2022-08-26T16:40:53.977Z,73.55
2022-08-26T16:43:41.301Z,73.53
2022-08-26T16:46:29.030Z,73.68
2022-08-26T16:49:16.410Z,74.41
2022-08-26T16:52:04.438Z,74.44
2022-08-26T16:54:53.014Z,73.94
2022-08-26T16:57:42.985Z,74.60
2022-08-26T17:00:32.990Z,74.22
2022-08-26T17:03:20.475Z,74.61
2022-08-26T17:06:08.385Z,74.87
2022-08-26T17:08:55.717Z,74.55
2022-08-26T17:11:43.680Z,76.06
2022-08-26T17:14:31.290Z,77.15
2022-08-26T17:17:18.557Z,78.03
2022-08-26T17:20:09.690Z,78.20
2022-08-26T17:22:57.073Z,78.55
2022-08-26T17:25:44.407Z,79.18
2022-08-26T17:28:32.217Z,78.84
2022-08-26T17:31:20.876Z,79.70
2022-08-26T17:34:08.313Z,80.27
2022-08-26T17:36:55.637Z,78.89
2022-08-26T17:39:44.049Z,78.49
2022-08-26T17:42:31.860Z,79.49
2022-08-26T17:48:08.352Z,80.05
2022-08-26T17:50:56.440Z,79.56
2022-08-26T17:53:43.773Z,79.00
2022-08-26T17:56:31.165Z,79.85
2022-08-26T17:59:18.492Z,79.89
2022-08-26T18:02:06.219Z,79.14
2022-08-26T18:04:53.462Z,78.76
2022-08-26T18:07:44.000Z,78.23
2022-08-26T18:10:32.046Z,78.47
2022-08-26T18:13:19.324Z,77.58
2022-08-26T18:16:06.836Z,78.36
2022-08-26T18:18:54.383Z,77.50
2022-08-26T18:21:41.637Z,77.76
2022-08-26T18:24:30.436Z,77.43
2022-08-26T18:27:17.692Z,77.20
2022-08-26T18:30:09.807Z,77.39
2022-08-26T18:33:00.217Z,77.19
2022-08-26T18:35:47.516Z,77.03
2022-08-26T18:38:34.825Z,77.41
2022-08-26T18:41:24.766Z,77.25
2022-08-26T18:44:14.114Z,77.77
2022-08-26T18:47:01.452Z,78.23
2022-08-26T18:49:48.693Z,77.60
2022-08-26T18:52:36.282Z,78.58
2022-08-26T18:55:23.643Z,78.44
2022-08-26T18:58:11.579Z,78.19
2022-08-26T19:00:59.260Z,78.42
2022-08-26T19:03:48.033Z,78.87
2022-08-26T19:06:35.771Z,78.50
2022-08-26T19:09:26.070Z,78.96
2022-08-26T19:12:13.349Z,79.14
2022-08-26T19:15:02.438Z,79.25
2022-08-26T19:17:50.212Z,78.73
2022-08-26T19:20:46.392Z,79.41
2022-08-26T19:23:34.434Z,79.40
2022-08-26T19:26:22.047Z,78.65
2022-08-26T19:29:09.490Z,79.16
2022-08-26T19:31:56.805Z,79.43
2022-08-26T19:34:44.470Z,79.61
2022-08-26T19:37:32.715Z,79.26
2022-08-26T19:40:20.019Z,79.22
2022-08-26T19:43:08.389Z,79.05
2022-08-26T19:45:55.777Z,79.33
2022-08-26T19:48:44.433Z,79.51
2022-08-26T19:51:33.854Z,79.24
2022-08-26T19:54:24.361Z,79.30
2022-08-26T19:57:11.691Z,78.76
2022-08-26T19:59:59.690Z,79.66
2022-08-26T20:02:47.469Z,79.93
2022-08-26T20:05:35.238Z,80.04
2022-08-26T20:08:22.862Z,79.34
2022-08-26T20:11:14.511Z,79.61
2022-08-26T20:14:02.142Z,80.18
2022-08-26T20:16:49.534Z,79.71
2022-08-26T20:19:55.475Z,79.33
2022-08-26T20:22:43.132Z,78.69
2022-08-26T20:25:32.473Z,79.08
2022-08-26T20:28:19.728Z,78.57
2022-08-26T20:31:06.987Z,78.80
2022-08-26T20:33:56.077Z,78.48
2022-08-26T20:36:44.496Z,78.19
2022-08-26T20:39:31.752Z,78.63
2022-08-26T20:42:20.029Z,77.85
2022-08-26T20:45:08.642Z,78.34
2022-08-26T20:47:55.905Z,77.73
2022-08-26T20:50:43.195Z,77.96
2022-08-26T20:53:31.304Z,78.09
2022-08-26T20:56:26.180Z,78.79
2022-08-26T20:59:14.126Z,78.74
2022-08-26T21:02:01.449Z,78.16
2022-08-26T21:04:48.782Z,78.34
2022-08-26T21:07:36.075Z,77.92
2022-08-26T21:10:23.511Z,78.02
2022-08-26T21:13:11.523Z,79.14
2022-08-26T21:16:02.026Z,78.88
2022-08-26T21:18:49.877Z,79.13
2022-08-26T21:21:37.477Z,79.78
2022-08-26T21:24:24.769Z,79.98
2022-08-26T21:27:12.044Z,80.19
2022-08-26T21:29:59.352Z,81.01
2022-08-26T21:32:46.641Z,81.22
2022-08-26T21:35:34.223Z,81.02
2022-08-26T21:38:22.149Z,81.20
2022-08-26T21:41:14.501Z,81.15
2022-08-26T21:44:04.067Z,81.77
2022-08-26T21:46:51.293Z,82.09
2022-08-26T21:49:38.950Z,81.80
2022-08-26T21:52:26.461Z,81.53
2022-08-26T21:55:13.751Z,82.96
2022-08-26T21:58:01.125Z,82.33
2022-08-26T22:00:49.588Z,82.42
2022-08-26T22:03:46.638Z,81.96
2022-08-26T22:06:43.132Z,82.36
2022-08-26T22:09:31.553Z,81.22
2022-08-26T22:12:18.974Z,81.89
2022-08-26T22:15:06.933Z,80.95
2022-08-26T22:17:54.169Z,81.85
2022-08-26T22:20:41.777Z,82.56
2022-08-26T22:23:29.312Z,83.86
2022-08-26T22:26:25.532Z,82.59
2022-08-26T22:29:13.581Z,83.54
2022-08-26T22:32:01.475Z,84.36
2022-08-26T22:34:48.861Z,84.80
2022-08-26T22:37:36.130Z,86.53
2022-08-26T22:40:23.530Z,88.08
2022-08-26T22:43:12.021Z,87.19
2022-08-26T22:45:59.360Z,88.26
2022-08-26T22:48:46.873Z,87.95
2022-08-26T22:51:39.236Z,87.07
2022-08-26T22:54:26.609Z,87.83
2022-08-26T22:57:13.882Z,87.32
2022-08-26T23:00:01.177Z,88.27
2022-08-26T23:02:48.449Z,88.32
2022-08-26T23:05:35.749Z,87.96
2022-08-26T23:08:24.602Z,89.62
2022-08-26T23:11:12.927Z,87.98
2022-08-26T23:14:05.035Z,89.29
2022-08-26T23:16:53.749Z,89.36
2022-08-26T23:19:41.243Z,88.93
2022-08-26T23:22:28.562Z,89.67
2022-08-26T23:25:15.905Z,90.23
2022-08-26T23:28:03.926Z,90.44
2022-08-26T23:30:51.281Z,89.99
2022-08-26T23:33:57.217Z,90.80
2022-08-26T23:36:46.318Z,91.05
2022-08-26T23:39:35.968Z,91.29
2022-08-26T23:42:23.257Z,91.30
2022-08-26T23:45:12.700Z,91.40
2022-08-26T23:48:00.034Z,92.79
2022-08-26T23:51:05.919Z,90.93
2022-08-26T23:53:53.218Z,91.02
2022-08-26T23:56:40.849Z,90.67
2022-08-26T23:59:28.196Z,89.12
